Time;durP1;ratioP1;P1;durP2;ratioP2;P2;SDS_P1;SDS_P2;PMS_P1;PMS_P2;Temp;Humidity;BMP_temperature;BMP_pressure;BME280_temperature;BME280_humidity;BME280_pressure;Samples;Min_cycle;Max_cycle;Signal;HPM_P1;HPM_P2
2021/12/22 00:00:07;;;;;;;;;;;19.90;57.40;;;;;;5074726;28;1309;-68
2021/12/22 00:02:34;;;;;;;;;;;19.90;57.40;;;;;;5057212;28;1975;-68
2021/12/22 00:05:00;;;;;;;;;;;19.90;57.40;;;;;;5054462;28;1255;-69
2021/12/22 00:07:25;;;;;;;;;;;19.90;57.40;;;;;;5054168;28;1370;-67
2021/12/22 00:09:51;;;;;;;;;;;19.90;57.40;;;;;;5035794;28;1222;-67
2021/12/22 00:12:16;;;;;;;;;;;19.90;57.40;;;;;;5051536;28;1271;-68
2021/12/22 00:14:42;;;;;;;;;;;19.90;57.50;;;;;;5054498;28;1090;-67
2021/12/22 00:17:07;;;;;;;;;;;19.90;57.50;;;;;;5054345;28;1307;-67
2021/12/22 00:19:33;;;;;;;;;;;19.80;57.50;;;;;;5054062;28;1270;-67
2021/12/22 00:21:58;;;;;;;;;;;19.80;57.40;;;;;;5053912;28;1298;-68
2021/12/22 00:24:23;;;;;;;;;;;19.80;57.50;;;;;;5054098;28;1898;-68
2021/12/22 00:26:49;;;;;;;;;;;19.90;57.50;;;;;;5054028;28;1139;-69
2021/12/22 00:29:16;;;;;;;;;;;19.80;57.50;;;;;;5036088;28;1139;-66
2021/12/22 00:31:55;;;;;;;;;;;19.90;57.50;;;;;;5053650;28;1373;-67
2021/12/22 00:34:21;;;;;;;;;;;19.80;57.50;;;;;;5053838;28;1324;-68
2021/12/22 00:36:46;;;;;;;;;;;19.80;57.60;;;;;;5053883;28;1353;-67
2021/12/22 00:39:12;;;;;;;;;;;19.80;57.60;;;;;;5053723;28;1283;-66
2021/12/22 00:41:37;;;;;;;;;;;19.80;57.60;;;;;;5035978;28;1406;-70
2021/12/22 00:44:03;;;;;;;;;;;19.80;57.60;;;;;;5053995;28;1902;-68
2021/12/22 00:46:28;;;;;;;;;;;19.80;57.60;;;;;;5053979;28;1075;-68
2021/12/22 00:48:53;;;;;;;;;;;19.80;57.60;;;;;;5053420;28;1354;-68
2021/12/22 00:51:19;;;;;;;;;;;19.80;57.60;;;;;;5036080;28;1410;-67
2021/12/22 00:53:44;;;;;;;;;;;19.80;58.20;;;;;;5052362;28;1315;-68
2021/12/22 00:56:10;;;;;;;;;;;19.80;57.70;;;;;;5035692;28;1398;-68
2021/12/22 00:58:35;;;;;;;;;;;19.80;57.70;;;;;;5053141;28;1279;-67
2021/12/22 01:01:01;;;;;;;;;;;19.80;57.70;;;;;;5035358;28;1080;-67
2021/12/22 01:03:26;;;;;;;;;;;19.80;57.70;;;;;;5035509;28;1958;-67
2021/12/22 01:05:52;;;;;;;;;;;19.80;57.70;;;;;;5053066;28;1526;-69
2021/12/22 01:08:17;;;;;;;;;;;19.70;57.70;;;;;;5051111;28;1259;-67
2021/12/22 01:10:43;;;;;;;;;;;19.80;57.70;;;;;;5058930;28;1170;-67
2021/12/22 01:13:08;;;;;;;;;;;19.70;57.70;;;;;;5053281;28;1191;-69
2021/12/22 01:15:34;;;;;;;;;;;19.80;57.70;;;;;;5053101;28;1429;-67
2021/12/22 01:18:05;;;;;;;;;;;19.80;57.70;;;;;;5035194;28;1064;-68
2021/12/22 01:20:36;;;;;;;;;;;19.80;57.80;;;;;;5051704;28;1291;-67
2021/12/22 01:23:02;;;;;;;;;;;19.70;57.70;;;;;;5053141;28;1902;-67
2021/12/22 01:25:28;;;;;;;;;;;19.70;57.80;;;;;;5035481;28;1279;-67
2021/12/22 01:27:54;;;;;;;;;;;19.70;57.70;;;;;;5052680;28;1483;-67
2021/12/22 01:30:26;;;;;;;;;;;19.70;57.70;;;;;;5018625;28;1368;-68
2021/12/22 01:32:53;;;;;;;;;;;19.70;57.80;;;;;;5052575;28;1362;-68
2021/12/22 01:35:22;;;;;;;;;;;19.70;57.80;;;;;;5035026;28;1355;-68
2021/12/22 01:37:47;;;;;;;;;;;19.70;57.80;;;;;;5018350;28;1341;-68
2021/12/22 01:40:13;;;;;;;;;;;19.70;57.80;;;;;;5052814;28;1325;-68
2021/12/22 01:42:39;;;;;;;;;;;19.70;57.80;;;;;;5052888;28;1973;-68
2021/12/22 01:50:29;;;;;;;;;;;19.70;57.80;;;;;;5037600;28;1241;-67
2021/12/22 01:52:55;;;;;;;;;;;19.70;57.80;;;;;;5052857;28;1424;-67
2021/12/22 01:55:33;;;;;;;;;;;19.70;57.80;;;;;;5034759;28;1347;-68
2021/12/22 01:57:59;;;;;;;;;;;19.70;57.90;;;;;;5035329;28;1301;-68
2021/12/22 02:00:24;;;;;;;;;;;19.70;57.90;;;;;;5034114;28;1275;-68
2021/12/22 02:02:50;;;;;;;;;;;19.70;57.90;;;;;;5034672;28;1871;-67
2021/12/22 02:05:15;;;;;;;;;;;19.70;57.90;;;;;;5052516;28;1329;-68
2021/12/22 02:07:41;;;;;;;;;;;19.70;57.90;;;;;;5034493;28;1299;-68
2021/12/22 02:10:28;;;;;;;;;;;19.60;57.90;;;;;;5056489;28;1182;-71
2021/12/22 02:12:54;;;;;;;;;;;19.70;57.90;;;;;;5037300;28;1291;-67
2021/12/22 02:15:20;;;;;;;;;;;19.60;57.90;;;;;;5052311;28;1287;-68
2021/12/22 02:17:45;;;;;;;;;;;19.70;57.90;;;;;;5034442;28;1179;-68
2021/12/22 02:20:11;;;;;;;;;;;19.70;57.90;;;;;;5052368;28;1251;-70
2021/12/22 02:22:39;;;;;;;;;;;19.60;57.90;;;;;;5034832;28;1902;-68
2021/12/22 02:25:12;;;;;;;;;;;19.70;57.90;;;;;;5052258;28;1311;-67
2021/12/22 02:27:56;;;;;;;;;;;19.60;57.90;;;;;;5035609;28;1264;-71
2021/12/22 02:30:25;;;;;;;;;;;19.60;57.90;;;;;;5052183;28;1178;-68
2021/12/22 02:35:27;;;;;;;;;;;19.60;57.90;;;;;;5034579;28;1377;-68
2021/12/22 02:37:53;;;;;;;;;;;19.60;57.90;;;;;;5035437;28;1507;-68
2021/12/22 02:40:25;;;;;;;;;;;19.70;57.90;;;;;;5034421;28;1284;-67
2021/12/22 02:42:54;;;;;;;;;;;19.60;57.90;;;;;;5035080;28;1914;-68
2021/12/22 02:45:19;;;;;;;;;;;19.60;57.90;;;;;;5051900;28;1107;-69
2021/12/22 02:47:45;;;;;;;;;;;19.60;57.90;;;;;;5033641;28;1328;-69
2021/12/22 02:50:11;;;;;;;;;;;19.60;57.90;;;;;;5041608;28;1112;-70
2021/12/22 02:52:54;;;;;;;;;;;19.60;57.90;;;;;;5054045;28;1323;-68
2021/12/22 02:55:28;;;;;;;;;;;19.60;57.90;;;;;;5071917;28;1090;-68
2021/12/22 02:57:55;;;;;;;;;;;19.60;57.90;;;;;;5067202;28;1220;-68
2021/12/22 03:00:46;;;;;;;;;;;19.70;57.90;;;;;;5063230;28;1313;-68
2021/12/22 03:03:33;;;;;;;;;;;19.60;57.90;;;;;;5040780;28;1906;-68
2021/12/22 03:06:02;;;;;;;;;;;19.60;57.90;;;;;;5051559;28;1056;-68
2021/12/22 03:08:28;;;;;;;;;;;19.60;57.90;;;;;;5047847;28;1131;-68
2021/12/22 03:10:55;;;;;;;;;;;19.60;57.90;;;;;;5060281;28;1115;-69
2021/12/22 03:13:21;;;;;;;;;;;19.60;57.90;;;;;;5055191;28;1406;-71
2021/12/22 03:15:47;;;;;;;;;;;19.60;57.90;;;;;;5054971;28;1048;-68
2021/12/22 03:18:12;;;;;;;;;;;19.60;57.90;;;;;;5037216;28;1339;-68
2021/12/22 03:20:38;;;;;;;;;;;19.60;57.90;;;;;;5054922;28;1294;-68
2021/12/22 03:23:04;;;;;;;;;;;19.60;58.00;;;;;;5055336;28;1951;-69
2021/12/22 03:25:30;;;;;;;;;;;19.60;57.90;;;;;;5054673;28;1280;-69
2021/12/22 03:28:01;;;;;;;;;;;19.60;57.90;;;;;;5054822;28;1263;-68
2021/12/22 03:30:26;;;;;;;;;;;19.60;58.00;;;;;;5054713;28;1383;-68
2021/12/22 03:32:51;;;;;;;;;;;19.60;58.00;;;;;;5054650;28;1221;-70
2021/12/22 03:35:19;;;;;;;;;;;19.60;58.00;;;;;;5036978;28;1341;-68
2021/12/22 03:37:45;;;;;;;;;;;19.60;58.00;;;;;;5054454;28;1372;-68
2021/12/22 03:40:11;;;;;;;;;;;19.60;58.00;;;;;;5037236;28;1338;-68
2021/12/22 03:42:36;;;;;;;;;;;19.60;58.00;;;;;;5054142;28;1290;-68
2021/12/22 03:45:02;;;;;;;;;;;19.60;58.00;;;;;;5054828;28;1909;-69
2021/12/22 03:47:27;;;;;;;;;;;19.60;58.00;;;;;;5054736;28;1366;-69
2021/12/22 03:49:53;;;;;;;;;;;19.60;58.00;;;;;;5054767;28;1255;-68
2021/12/22 03:52:18;;;;;;;;;;;19.60;58.00;;;;;;5054427;28;1390;-70
2021/12/22 03:54:43;;;;;;;;;;;19.60;58.00;;;;;;5037165;28;1339;-68
2021/12/22 03:57:09;;;;;;;;;;;19.50;58.00;;;;;;5036916;28;1088;-68
2021/12/22 03:59:34;;;;;;;;;;;19.60;58.10;;;;;;5054451;28;1326;-71
2021/12/22 04:02:00;;;;;;;;;;;19.50;58.00;;;;;;5036631;28;1291;-67
2021/12/22 04:04:25;;;;;;;;;;;19.60;58.10;;;;;;5054690;28;1969;-67
2021/12/22 04:06:51;;;;;;;;;;;19.60;58.10;;;;;;5053026;28;1351;-68
2021/12/22 04:09:17;;;;;;;;;;;19.60;58.10;;;;;;5054697;28;1327;-68
2021/12/22 04:11:42;;;;;;;;;;;19.60;58.10;;;;;;5058367;28;1386;-67
2021/12/22 04:14:08;;;;;;;;;;;19.50;58.00;;;;;;5036578;28;1140;-67
2021/12/22 04:16:34;;;;;;;;;;;19.50;58.10;;;;;;5036734;28;1306;-68
2021/12/22 04:18:59;;;;;;;;;;;19.50;58.10;;;;;;5053995;28;1250;-68
2021/12/22 04:21:25;;;;;;;;;;;19.50;58.10;;;;;;5053762;28;1357;-67
2021/12/22 04:23:50;;;;;;;;;;;19.50;58.10;;;;;;5036372;28;1910;-67
2021/12/22 04:26:16;;;;;;;;;;;19.50;58.10;;;;;;5054217;28;1760;-69
2021/12/22 04:28:41;;;;;;;;;;;19.50;58.10;;;;;;5049027;28;2049;-68
2021/12/22 04:31:07;;;;;;;;;;;19.50;58.10;;;;;;5055030;28;1216;-68
2021/12/22 04:33:32;;;;;;;;;;;19.50;58.10;;;;;;5032747;28;1375;-69
2021/12/22 04:35:58;;;;;;;;;;;19.50;58.10;;;;;;5047695;28;1413;-70
2021/12/22 04:38:23;;;;;;;;;;;19.50;58.10;;;;;;5050772;28;1275;-69
2021/12/22 04:40:48;;;;;;;;;;;19.50;58.10;;;;;;5050783;28;1168;-69
2021/12/22 04:43:14;;;;;;;;;;;19.50;58.10;;;;;;5054513;28;1905;-69
2021/12/22 04:45:39;;;;;;;;;;;19.50;58.10;;;;;;5047238;28;1222;-69
2021/12/22 04:48:05;;;;;;;;;;;19.50;58.10;;;;;;5056054;28;1208;-69
2021/12/22 04:50:32;;;;;;;;;;;19.50;58.20;;;;;;5032836;28;1287;-70
2021/12/22 04:53:10;;;;;;;;;;;19.50;58.20;;;;;;5047642;28;1589;-68
2021/12/22 04:55:35;;;;;;;;;;;19.50;58.20;;;;;;5046934;28;1235;-68
2021/12/22 04:58:00;;;;;;;;;;;19.50;58.20;;;;;;5050009;28;1329;-70
2021/12/22 05:00:27;;;;;;;;;;;19.50;58.20;;;;;;5026837;28;1283;-69
2021/12/22 05:02:53;;;;;;;;;;;19.50;58.20;;;;;;5054020;28;1967;-70
2021/12/22 05:05:18;;;;;;;;;;;19.50;58.20;;;;;;5048345;28;1281;-69
2021/12/22 05:07:47;;;;;;;;;;;19.50;58.20;;;;;;5072674;28;1311;-70
2021/12/22 05:10:12;;;;;;;;;;;19.50;58.20;;;;;;5035296;28;1158;-70
2021/12/22 05:12:38;;;;;;;;;;;19.50;58.20;;;;;;5036097;28;1339;-70
2021/12/22 05:15:03;;;;;;;;;;;19.50;58.20;;;;;;5035699;28;1275;-70
2021/12/22 05:20:04;;;;;;;;;;;19.50;58.20;;;;;;5036652;28;1284;-68
2021/12/22 05:22:29;;;;;;;;;;;19.50;58.20;;;;;;5053058;28;1316;-70
2021/12/22 05:24:57;;;;;;;;;;;19.40;58.20;;;;;;5053172;28;1955;-69
2021/12/22 05:27:23;;;;;;;;;;;19.50;58.30;;;;;;5053138;28;1291;-70
2021/12/22 05:29:48;;;;;;;;;;;19.40;58.20;;;;;;5053377;28;1271;-69
2021/12/22 05:32:14;;;;;;;;;;;19.40;58.20;;;;;;5052792;28;1316;-69
2021/12/22 05:34:39;;;;;;;;;;;19.40;58.20;;;;;;5051979;28;1335;-70
2021/12/22 05:37:05;;;;;;;;;;;19.50;58.30;;;;;;5035303;28;1312;-69
2021/12/22 05:39:30;;;;;;;;;;;19.40;58.20;;;;;;5052795;28;1075;-70
2021/12/22 05:41:57;;;;;;;;;;;19.50;58.30;;;;;;5053114;28;1330;-70
2021/12/22 05:44:23;;;;;;;;;;;19.50;58.20;;;;;;5035310;28;1965;-69
2021/12/22 05:46:48;;;;;;;;;;;19.50;58.20;;;;;;5052931;28;1901;-69
2021/12/22 05:49:14;;;;;;;;;;;19.50;58.20;;;;;;5052422;28;1274;-69
2021/12/22 05:51:39;;;;;;;;;;;19.50;58.10;;;;;;5052647;28;1268;-69
2021/12/22 05:54:04;;;;;;;;;;;19.60;58.10;;;;;;5053063;28;1306;-69
2021/12/22 05:56:30;;;;;;;;;;;19.60;58.00;;;;;;5053143;28;1334;-69
2021/12/22 05:58:55;;;;;;;;;;;19.60;57.90;;;;;;5034706;28;1474;-70
2021/12/22 06:01:21;;;;;;;;;;;19.60;57.80;;;;;;5052583;28;1290;-69
2021/12/22 06:03:46;;;;;;;;;;;19.60;57.70;;;;;;5052455;28;1965;-70
2021/12/22 06:06:12;;;;;;;;;;;19.70;57.70;;;;;;5052538;28;1279;-70
2021/12/22 06:08:37;;;;;;;;;;;19.70;57.60;;;;;;5048440;28;1311;-70
2021/12/22 06:11:02;;;;;;;;;;;19.70;57.50;;;;;;5061829;28;1150;-70
2021/12/22 06:13:28;;;;;;;;;;;19.70;57.40;;;;;;5052557;28;1333;-69
2021/12/22 06:15:53;;;;;;;;;;;19.70;57.40;;;;;;5052525;28;1083;-70
2021/12/22 06:18:19;;;;;;;;;;;19.80;57.40;;;;;;5052004;28;1348;-70
2021/12/22 06:20:44;;;;;;;;;;;19.80;57.40;;;;;;5052534;28;1250;-70
2021/12/22 06:23:11;;;;;;;;;;;19.80;57.30;;;;;;5052371;28;1894;-69
2021/12/22 06:25:36;;;;;;;;;;;19.80;57.30;;;;;;5052581;28;1166;-68
2021/12/22 06:28:02;;;;;;;;;;;19.80;57.30;;;;;;5052238;28;1231;-70
2021/12/22 06:30:28;;;;;;;;;;;19.80;57.80;;;;;;5034757;28;1417;-69
2021/12/22 06:32:53;;;;;;;;;;;19.80;57.20;;;;;;5052034;28;1295;-69
2021/12/22 06:35:19;;;;;;;;;;;19.80;57.20;;;;;;5052531;28;1278;-69
2021/12/22 06:37:44;;;;;;;;;;;19.80;57.70;;;;;;5052167;28;1316;-69
2021/12/22 06:40:10;;;;;;;;;;;19.90;57.10;;;;;;5034630;28;1477;-70
2021/12/22 06:42:36;;;;;;;;;;;19.90;57.10;;;;;;5052463;28;1159;-69
2021/12/22 06:45:02;;;;;;;;;;;19.90;57.10;;;;;;5052870;28;1960;-70
2021/12/22 06:47:28;;;;;;;;;;;19.90;57.10;;;;;;5055711;28;1298;-69
2021/12/22 06:49:53;;;;;;;;;;;19.90;57.00;;;;;;5055874;28;1148;-69
2021/12/22 06:52:18;;;;;;;;;;;19.90;57.00;;;;;;5038121;28;1398;-70
2021/12/22 06:54:46;;;;;;;;;;;19.90;57.00;;;;;;5055943;28;1374;-69
2021/12/22 06:57:14;;;;;;;;;;;19.90;57.00;;;;;;5056039;28;1361;-68
2021/12/22 06:59:39;;;;;;;;;;;19.90;57.00;;;;;;5055767;28;1171;-69
2021/12/22 07:02:05;;;;;;;;;;;19.90;57.00;;;;;;5037650;28;1385;-69
2021/12/22 07:04:30;;;;;;;;;;;19.90;57.00;;;;;;5055648;28;1902;-69
2021/12/22 07:06:56;;;;;;;;;;;19.90;57.00;;;;;;5055613;28;1327;-69
2021/12/22 07:09:21;;;;;;;;;;;19.90;57.00;;;;;;5057154;28;1402;-70
2021/12/22 07:11:47;;;;;;;;;;;19.90;57.00;;;;;;5048443;28;1823;-70
2021/12/22 07:14:13;;;;;;;;;;;19.90;57.00;;;;;;5047059;28;2130;-69
2021/12/22 07:16:38;;;;;;;;;;;19.90;57.00;;;;;;5048617;28;1006;-69
2021/12/22 07:19:04;;;;;;;;;;;19.90;57.00;;;;;;5029324;28;1252;-69
2021/12/22 07:21:31;;;;;;;;;;;19.90;57.50;;;;;;5054096;28;1272;-69
2021/12/22 07:23:56;;;;;;;;;;;19.90;56.90;;;;;;5054178;28;1902;-71
2021/12/22 07:26:21;;;;;;;;;;;19.90;56.90;;;;;;5053179;28;1326;-69
2021/12/22 07:28:47;;;;;;;;;;;19.90;56.90;;;;;;5052993;28;1294;-69
2021/12/22 07:31:13;;;;;;;;;;;19.90;56.90;;;;;;5066401;28;1267;-69
2021/12/22 07:33:38;;;;;;;;;;;19.90;56.90;;;;;;5055464;28;1366;-69
2021/12/22 07:36:04;;;;;;;;;;;20.00;56.90;;;;;;5055725;28;1306;-70
2021/12/22 07:38:33;;;;;;;;;;;19.90;56.80;;;;;;5072912;28;1340;-69
2021/12/22 07:40:59;;;;;;;;;;;20.00;56.90;;;;;;5073143;28;1273;-69
2021/12/22 07:43:25;;;;;;;;;;;20.00;56.90;;;;;;5073229;28;1994;-69
2021/12/22 07:45:50;;;;;;;;;;;20.00;56.90;;;;;;5073304;28;1324;-69
2021/12/22 07:48:16;;;;;;;;;;;20.00;56.80;;;;;;5072814;28;1356;-70
2021/12/22 07:50:41;;;;;;;;;;;20.00;56.90;;;;;;5074804;28;1138;-68
2021/12/22 07:53:07;;;;;;;;;;;20.00;56.80;;;;;;5074225;28;1321;-69
2021/12/22 07:55:32;;;;;;;;;;;20.00;56.80;;;;;;5073833;28;1221;-69
2021/12/22 07:57:57;;;;;;;;;;;20.00;56.80;;;;;;5073727;28;1277;-69
2021/12/22 08:00:23;;;;;;;;;;;20.00;56.80;;;;;;5074487;28;1098;-69
2021/12/22 08:02:48;;;;;;;;;;;20.00;56.80;;;;;;5055759;28;1272;-70
2021/12/22 08:05:14;;;;;;;;;;;20.00;56.80;;;;;;5054468;28;1906;-68
2021/12/22 08:07:39;;;;;;;;;;;20.00;56.80;;;;;;5054461;28;1306;-70
2021/12/22 08:10:05;;;;;;;;;;;20.00;56.80;;;;;;5059604;28;1155;-68
2021/12/22 08:12:30;;;;;;;;;;;20.00;56.80;;;;;;5054250;28;1358;-68
2021/12/22 08:14:56;;;;;;;;;;;20.00;56.80;;;;;;5054439;28;1440;-68
2021/12/22 08:17:21;;;;;;;;;;;20.00;56.80;;;;;;5054180;28;1345;-68
2021/12/22 08:19:47;;;;;;;;;;;20.00;56.80;;;;;;5036537;28;1367;-69
2021/12/22 08:22:12;;;;;;;;;;;20.10;56.70;;;;;;5054009;28;1364;-67
2021/12/22 08:24:38;;;;;;;;;;;20.20;56.50;;;;;;5054256;28;1959;-69
2021/12/22 08:27:03;;;;;;;;;;;20.30;56.40;;;;;;5054369;28;1527;-69
2021/12/22 08:29:29;;;;;;;;;;;20.50;56.20;;;;;;5054276;28;1519;-68
2021/12/22 08:31:54;;;;;;;;;;;20.60;56.00;;;;;;5053808;28;1355;-68
2021/12/22 08:34:27;;;;;;;;;;;20.80;55.80;;;;;;5036429;28;1388;-68
2021/12/22 08:39:37;;;;;;;;;;;21.10;55.20;;;;;;5038579;28;1056;-70
2021/12/22 08:42:02;;;;;;;;;;;21.20;54.80;;;;;;5053652;28;1365;-69
2021/12/22 08:44:28;;;;;;;;;;;21.30;54.50;;;;;;5053676;28;1965;-69
2021/12/22 08:46:55;;;;;;;;;;;21.50;54.30;;;;;;5036009;28;1322;-68
2021/12/22 08:49:20;;;;;;;;;;;21.60;54.00;;;;;;5035763;28;1445;-68
2021/12/22 08:51:46;;;;;;;;;;;21.70;53.80;;;;;;5053699;28;1330;-68
2021/12/22 08:54:11;;;;;;;;;;;21.70;53.50;;;;;;5035836;28;1300;-69
2021/12/22 08:56:37;;;;;;;;;;;21.80;53.30;;;;;;5053553;28;1247;-70
2021/12/22 08:59:03;;;;;;;;;;;21.80;53.20;;;;;;5054742;28;1187;-69
2021/12/22 09:01:28;;;;;;;;;;;21.90;53.10;;;;;;5065258;28;1349;-69
2021/12/22 09:03:54;;;;;;;;;;;21.90;53.00;;;;;;5053635;28;1964;-70
2021/12/22 09:06:19;;;;;;;;;;;22.00;52.90;;;;;;5053569;28;1338;-70
2021/12/22 09:08:44;;;;;;;;;;;22.00;52.90;;;;;;5049115;28;1066;-69
2021/12/22 09:11:10;;;;;;;;;;;22.00;52.80;;;;;;5061466;28;1153;-70
2021/12/22 09:13:36;;;;;;;;;;;22.00;52.80;;;;;;5053429;28;1240;-70
2021/12/22 09:16:02;;;;;;;;;;;22.00;52.90;;;;;;5053364;28;1237;-70
2021/12/22 09:18:27;;;;;;;;;;;22.00;52.90;;;;;;5035547;28;1291;-70
2021/12/22 09:20:53;;;;;;;;;;;22.00;53.00;;;;;;5053336;28;1314;-70
2021/12/22 09:23:18;;;;;;;;;;;22.00;53.00;;;;;;5053548;28;1894;-70
2021/12/22 09:25:44;;;;;;;;;;;22.00;53.10;;;;;;5053201;28;1384;-70
2021/12/22 09:28:10;;;;;;;;;;;22.00;53.10;;;;;;5052913;28;1052;-69
2021/12/22 09:30:37;;;;;;;;;;;22.00;53.20;;;;;;5035447;28;1076;-70
2021/12/22 09:33:03;;;;;;;;;;;22.00;53.20;;;;;;5052821;28;1385;-69
2021/12/22 09:35:28;;;;;;;;;;;22.00;53.10;;;;;;5052905;28;1340;-70
2021/12/22 09:37:54;;;;;;;;;;;22.00;53.10;;;;;;5052884;28;1263;-69
2021/12/22 09:40:19;;;;;;;;;;;22.00;53.00;;;;;;5052880;28;1180;-69
2021/12/22 09:42:44;;;;;;;;;;;22.00;53.10;;;;;;5052896;28;1423;-69
2021/12/22 09:45:10;;;;;;;;;;;22.00;53.70;;;;;;5052985;28;1951;-69
2021/12/22 09:47:50;;;;;;;;;;;21.90;53.10;;;;;;5052660;28;1313;-70
2021/12/22 09:50:24;;;;;;;;;;;21.90;53.10;;;;;;5059031;28;1117;-68
2021/12/22 09:52:50;;;;;;;;;;;21.90;53.20;;;;;;5072684;28;1333;-70
2021/12/22 09:55:17;;;;;;;;;;;21.90;53.30;;;;;;5054987;28;1261;-70
2021/12/22 09:57:44;;;;;;;;;;;21.80;53.30;;;;;;5072196;28;1335;-69
2021/12/22 10:00:10;;;;;;;;;;;21.80;53.40;;;;;;5072375;28;934;-69
2021/12/22 10:02:35;;;;;;;;;;;21.80;53.40;;;;;;5036886;28;1319;-70
2021/12/22 10:05:01;;;;;;;;;;;21.80;54.10;;;;;;5052183;28;1910;-69
2021/12/22 10:07:29;;;;;;;;;;;21.70;53.50;;;;;;5051633;28;1282;-69
2021/12/22 10:09:55;;;;;;;;;;;21.70;53.60;;;;;;5044169;28;1140;-69
2021/12/22 10:12:22;;;;;;;;;;;21.70;53.60;;;;;;5034118;28;1360;-69
2021/12/22 10:14:55;;;;;;;;;;;21.70;53.70;;;;;;5034451;28;1069;-68
2021/12/22 10:17:47;;;;;;;;;;;21.70;53.70;;;;;;5051947;28;1240;-68
2021/12/22 10:20:15;;;;;;;;;;;21.60;53.70;;;;;;5031488;28;1551;-69
2021/12/22 10:22:41;;;;;;;;;;;21.60;53.80;;;;;;5038315;28;1303;-70
2021/12/22 10:25:11;;;;;;;;;;;21.60;53.80;;;;;;5056058;28;1957;-70
2021/12/22 10:27:37;;;;;;;;;;;21.60;53.90;;;;;;5055840;28;1059;-70
2021/12/22 10:30:38;;;;;;;;;;;21.60;53.90;;;;;;5056110;28;1319;-68
2021/12/22 10:33:08;;;;;;;;;;;21.60;54.00;;;;;;4975056;28;1314;-69
2021/12/22 10:35:34;;;;;;;;;;;21.50;54.00;;;;;;5041314;28;1255;-70
2021/12/22 10:38:00;;;;;;;;;;;21.50;54.00;;;;;;5037792;28;1056;-70
2021/12/22 10:40:28;;;;;;;;;;;21.50;54.10;;;;;;5056188;28;1377;-69
2021/12/22 10:42:53;;;;;;;;;;;21.50;54.10;;;;;;5055651;28;1302;-70
2021/12/22 10:45:19;;;;;;;;;;;21.50;54.20;;;;;;5038028;28;2042;-70
2021/12/22 10:50:32;;;;;;;;;;;21.40;54.20;;;;;;5055604;28;1271;-69
2021/12/22 10:52:58;;;;;;;;;;;21.40;54.30;;;;;;5055678;28;1250;-70
2021/12/22 10:55:23;;;;;;;;;;;21.40;54.30;;;;;;5055308;28;1288;-70
2021/12/22 10:57:48;;;;;;;;;;;21.40;54.40;;;;;;5055726;28;1327;-70
2021/12/22 11:00:21;;;;;;;;;;;21.30;54.40;;;;;;5055863;28;1238;-70
2021/12/22 11:03:02;;;;;;;;;;;21.30;54.40;;;;;;5037931;28;1301;-68
2021/12/22 11:05:29;;;;;;;;;;;21.30;54.50;;;;;;5037967;28;1371;-70
2021/12/22 11:07:55;;;;;;;;;;;21.30;54.50;;;;;;5037697;28;1280;-69
2021/12/22 11:10:25;;;;;;;;;;;21.30;54.60;;;;;;5029953;28;1937;-68
2021/12/22 11:12:58;;;;;;;;;;;21.20;54.60;;;;;;5042033;28;1396;-68
2021/12/22 11:15:25;;;;;;;;;;;21.20;54.60;;;;;;5047454;28;1166;-68
2021/12/22 11:17:51;;;;;;;;;;;21.20;54.60;;;;;;5055711;28;1339;-69
2021/12/22 11:20:16;;;;;;;;;;;21.20;54.70;;;;;;5074844;28;1263;-68
2021/12/22 11:23:04;;;;;;;;;;;21.20;54.70;;;;;;5075291;28;1384;-69
2021/12/22 11:25:30;;;;;;;;;;;21.20;54.80;;;;;;5075950;28;1294;-69
2021/12/22 11:27:56;;;;;;;;;;;21.20;54.70;;;;;;5074764;28;1349;-68
2021/12/22 11:30:21;;;;;;;;;;;21.10;54.70;;;;;;5057639;28;1284;-68
2021/12/22 11:32:47;;;;;;;;;;;21.20;54.90;;;;;;5072566;28;1329;-68
2021/12/22 11:35:13;;;;;;;;;;;21.10;54.90;;;;;;5037359;28;1313;-67
2021/12/22 11:37:38;;;;;;;;;;;21.10;54.90;;;;;;5054685;28;1330;-68
2021/12/22 11:40:04;;;;;;;;;;;21.10;54.90;;;;;;5054073;28;1412;-67
2021/12/22 11:42:32;;;;;;;;;;;21.10;55.00;;;;;;5037041;28;1314;-69
2021/12/22 11:45:11;;;;;;;;;;;21.10;55.00;;;;;;5055149;28;1910;-67
2021/12/22 11:47:37;;;;;;;;;;;21.00;55.00;;;;;;5054562;28;1390;-68
2021/12/22 11:50:03;;;;;;;;;;;21.00;55.00;;;;;;5036930;28;1408;-68
2021/12/22 11:52:33;;;;;;;;;;;21.00;55.10;;;;;;5036965;28;1286;-69
2021/12/22 11:55:15;;;;;;;;;;;21.00;55.10;;;;;;5054797;28;1504;-68
2021/12/22 11:57:40;;;;;;;;;;;21.00;55.20;;;;;;5054256;28;1353;-68
2021/12/22 12:00:19;;;;;;;;;;;21.00;55.20;;;;;;5054764;28;1283;-68
2021/12/22 12:02:44;;;;;;;;;;;21.00;55.20;;;;;;5036680;28;1317;-68
2021/12/22 12:05:16;;;;;;;;;;;21.00;55.20;;;;;;5036593;28;1906;-67
2021/12/22 12:07:42;;;;;;;;;;;21.10;55.20;;;;;;5054178;28;1363;-68
2021/12/22 12:10:26;;;;;;;;;;;21.10;55.10;;;;;;5045772;28;1425;-68
2021/12/22 12:12:52;;;;;;;;;;;21.10;55.10;;;;;;5042678;28;1412;-68
2021/12/22 12:15:38;;;;;;;;;;;21.10;55.50;;;;;;5036579;28;1403;-69
2021/12/22 12:23:48;;;;;;;;;;;21.20;54.60;;;;;;4973201;28;1887;-68
2021/12/22 12:26:33;;;;;;;;;;;21.30;54.60;;;;;;5019773;28;1296;-68
2021/12/22 12:28:59;;;;;;;;;;;21.30;54.50;;;;;;5053555;28;1574;-68
2021/12/22 12:31:37;;;;;;;;;;;21.30;54.50;;;;;;5054126;28;1301;-68
2021/12/22 12:34:18;;;;;;;;;;;21.30;54.40;;;;;;5053946;28;1282;-67
2021/12/22 12:36:44;;;;;;;;;;;21.30;54.40;;;;;;5054397;28;1412;-67
2021/12/22 12:39:09;;;;;;;;;;;21.40;54.40;;;;;;5044552;28;1569;-66
2021/12/22 12:41:35;;;;;;;;;;;21.40;54.40;;;;;;5051008;28;1369;-64
2021/12/22 12:44:02;;;;;;;;;;;21.40;54.40;;;;;;5029829;28;1964;-65
2021/12/22 12:46:35;;;;;;;;;;;21.30;54.40;;;;;;5071160;28;1376;-65
2021/12/22 12:49:21;;;;;;;;;;;21.30;54.30;;;;;;5056145;28;1284;-65
2021/12/22 12:51:47;;;;;;;;;;;21.30;54.30;;;;;;5055742;28;1371;-67
2021/12/22 12:54:15;;;;;;;;;;;21.30;54.40;;;;;;5073525;28;1141;-67
2021/12/22 12:56:41;;;;;;;;;;;21.30;54.40;;;;;;5064619;28;990;-68
2021/12/22 12:59:07;;;;;;;;;;;21.30;54.40;;;;;;5051665;28;1283;-66
2021/12/22 13:01:45;;;;;;;;;;;21.30;54.50;;;;;;5035599;28;1368;-67
2021/12/22 13:04:20;;;;;;;;;;;21.30;54.50;;;;;;5047503;28;2045;-69
2021/12/22 13:06:49;;;;;;;;;;;21.30;54.50;;;;;;5050408;28;1025;-69
2021/12/22 13:09:24;;;;;;;;;;;21.30;54.50;;;;;;5048201;28;1084;-69
2021/12/22 13:11:59;;;;;;;;;;;21.20;54.50;;;;;;5065970;28;1266;-69
2021/12/22 13:17:16;;;;;;;;;;;21.30;54.60;;;;;;5058335;28;1162;-67
2021/12/22 13:19:42;;;;;;;;;;;21.20;54.60;;;;;;5072744;28;1358;-67
2021/12/22 13:22:20;;;;;;;;;;;21.20;54.60;;;;;;5073174;28;1317;-69
2021/12/22 13:24:46;;;;;;;;;;;21.20;54.70;;;;;;5055333;28;1903;-68
2021/12/22 13:27:11;;;;;;;;;;;21.20;54.70;;;;;;5073065;28;1312;-68
2021/12/22 13:29:39;;;;;;;;;;;21.20;54.80;;;;;;5071884;28;1143;-66
2021/12/22 13:32:08;;;;;;;;;;;21.10;54.80;;;;;;5072600;28;1376;-66
2021/12/22 13:34:45;;;;;;;;;;;21.20;54.80;;;;;;5072812;28;1303;-66
2021/12/22 13:37:10;;;;;;;;;;;21.10;54.80;;;;;;5054999;28;1314;-67
2021/12/22 13:39:45;;;;;;;;;;;21.10;54.80;;;;;;5072189;28;1408;-66
2021/12/22 13:42:11;;;;;;;;;;;21.10;54.80;;;;;;5072408;28;1266;-66
2021/12/22 13:44:37;;;;;;;;;;;21.10;54.90;;;;;;5059134;28;1902;-63
2021/12/22 13:47:03;;;;;;;;;;;21.10;54.90;;;;;;5038116;28;1275;-66
2021/12/22 13:49:28;;;;;;;;;;;21.10;54.90;;;;;;5072293;28;1333;-67
2021/12/22 13:51:54;;;;;;;;;;;21.10;55.00;;;;;;5072908;28;2077;-68
2021/12/22 13:54:20;;;;;;;;;;;21.10;55.00;;;;;;5054020;28;1302;-69
2021/12/22 13:56:45;;;;;;;;;;;21.10;55.00;;;;;;5072351;28;1313;-70
2021/12/22 13:59:12;;;;;;;;;;;21.10;55.00;;;;;;5072381;28;1230;-68
2021/12/22 14:01:46;;;;;;;;;;;21.00;55.00;;;;;;5063295;28;1211;-68
2021/12/22 14:04:31;;;;;;;;;;;21.00;55.00;;;;;;5031500;28;1901;-67
2021/12/22 14:07:03;;;;;;;;;;;21.00;55.10;;;;;;5051564;28;1338;-67
2021/12/22 14:09:31;;;;;;;;;;;21.00;55.00;;;;;;5053925;28;1138;-67
2021/12/22 14:11:56;;;;;;;;;;;21.00;55.10;;;;;;5054213;28;1282;-69
2021/12/22 14:14:25;;;;;;;;;;;21.00;55.10;;;;;;5052617;28;1403;-67
2021/12/22 14:16:51;;;;;;;;;;;21.00;55.10;;;;;;5052413;28;1111;-68
2021/12/22 14:19:17;;;;;;;;;;;20.90;55.10;;;;;;5034173;28;1275;-68
2021/12/22 14:21:42;;;;;;;;;;;20.90;55.20;;;;;;5052127;28;1361;-67
2021/12/22 14:24:08;;;;;;;;;;;20.90;55.20;;;;;;5052310;28;1890;-69
2021/12/22 14:26:34;;;;;;;;;;;20.90;55.20;;;;;;5052642;28;1318;-67
2021/12/22 14:29:00;;;;;;;;;;;20.90;55.20;;;;;;5052196;28;1326;-67
2021/12/22 14:31:26;;;;;;;;;;;20.90;55.30;;;;;;5050968;28;1360;-67
2021/12/22 14:34:07;;;;;;;;;;;20.90;55.30;;;;;;5034379;28;1291;-68
2021/12/22 14:36:45;;;;;;;;;;;20.90;55.30;;;;;;5052464;28;1288;-67
2021/12/22 14:39:11;;;;;;;;;;;20.90;55.40;;;;;;5051940;28;1267;-68
2021/12/22 14:41:36;;;;;;;;;;;20.90;55.40;;;;;;5034496;28;1351;-67
2021/12/22 14:44:02;;;;;;;;;;;20.80;55.40;;;;;;5034156;28;1986;-66
2021/12/22 14:46:31;;;;;;;;;;;20.80;55.40;;;;;;5050979;28;1845;-68
2021/12/22 14:48:58;;;;;;;;;;;20.80;55.40;;;;;;5028103;28;1083;-67
2021/12/22 14:51:24;;;;;;;;;;;20.80;55.50;;;;;;5043258;28;1299;-67
2021/12/22 14:53:59;;;;;;;;;;;20.80;55.50;;;;;;5052266;28;1352;-67
2021/12/22 14:56:25;;;;;;;;;;;20.80;55.50;;;;;;5052022;28;1357;-67